createdAt,value
2019-05-22T00:00:25.909Z,35.57
2019-05-22T00:02:58.544Z,41.20
2019-05-22T00:05:33.081Z,37.67
2019-05-22T00:08:09.106Z,34.00
2019-05-22T00:10:43.501Z,30.90
2019-05-22T00:13:20.494Z,38.20
2019-05-22T00:15:54.084Z,42.43
2019-05-22T00:18:28.042Z,32.23
2019-05-22T00:21:00.032Z,37.83
2019-05-22T00:23:32.982Z,36.63
2019-05-22T00:26:05.538Z,39.10
2019-05-22T00:29:07.440Z,36.73
2019-05-22T00:31:40.180Z,38.70
2019-05-22T00:34:14.097Z,36.53
2019-05-22T00:36:46.737Z,47.80
2019-05-22T00:39:21.502Z,36.47
2019-05-22T00:41:55.057Z,45.40
2019-05-22T00:44:28.164Z,45.47
2019-05-22T00:47:01.608Z,44.13
2019-05-22T00:49:33.848Z,53.63
2019-05-22T00:52:22.622Z,47.10
2019-05-22T00:55:15.450Z,52.80
2019-05-22T00:57:53.717Z,52.07
2019-05-22T01:00:39.628Z,49.73
2019-05-22T01:03:16.370Z,49.60
2019-05-22T01:05:48.654Z,51.67
2019-05-22T01:08:21.985Z,57.07
2019-05-22T01:10:54.693Z,67.87
2019-05-22T01:13:30.866Z,59.67
2019-05-22T01:16:02.736Z,61.90
2019-05-22T01:18:36.020Z,51.43
2019-05-22T01:21:10.264Z,60.43
2019-05-22T01:23:43.724Z,65.30
2019-05-22T01:26:20.013Z,56.60
2019-05-22T01:28:51.350Z,56.93
2019-05-22T01:31:27.951Z,65.63
2019-05-22T01:34:27.277Z,60.40
2019-05-22T01:37:02.670Z,62.10
2019-05-22T01:39:47.593Z,55.10
2019-05-22T01:42:28.245Z,54.87
2019-05-22T01:45:06.609Z,53.97
2019-05-22T01:48:00.304Z,53.10
2019-05-22T01:50:56.161Z,51.40
2019-05-22T01:53:37.573Z,53.40
2019-05-22T01:56:12.490Z,53.30
2019-05-22T01:58:45.166Z,55.60
2019-05-22T02:01:20.770Z,56.10
2019-05-22T02:03:56.684Z,58.00
2019-05-22T02:06:29.148Z,66.80
2019-05-22T02:09:27.100Z,62.37
2019-05-22T02:12:10.307Z,58.40
2019-05-22T02:14:46.280Z,54.90
2019-05-22T02:17:21.245Z,55.17
2019-05-22T02:19:53.381Z,66.37
2019-05-22T02:22:26.764Z,62.27
2019-05-22T02:24:59.967Z,53.87
2019-05-22T02:27:31.537Z,49.67
2019-05-22T02:30:04.772Z,57.83
2019-05-22T02:32:37.742Z,59.37
2019-05-22T02:35:10.296Z,49.87
2019-05-22T02:37:43.274Z,49.13
2019-05-22T02:40:25.872Z,50.27
2019-05-22T02:42:57.806Z,44.30
2019-05-22T02:45:30.246Z,45.50
2019-05-22T02:48:04.111Z,44.67
2019-05-22T02:50:35.524Z,50.67
2019-05-22T02:53:11.318Z,52.47
2019-05-22T02:55:43.219Z,51.53
2019-05-22T02:58:17.208Z,49.47
2019-05-22T03:01:00.314Z,53.23
2019-05-22T03:03:33.741Z,50.43
2019-05-22T03:06:10.624Z,56.80
2019-05-22T03:09:20.541Z,58.10
2019-05-22T03:12:11.648Z,51.37
2019-05-22T03:14:43.976Z,52.30
2019-05-22T03:17:30.226Z,59.57
2019-05-22T03:20:11.508Z,62.53
2019-05-22T03:22:58.787Z,60.10
2019-05-22T03:25:33.538Z,70.90
2019-05-22T03:28:08.037Z,66.00
2019-05-22T03:30:44.024Z,71.60
2019-05-22T03:33:16.199Z,67.43
2019-05-22T03:35:52.039Z,73.17
2019-05-22T03:38:25.902Z,68.57
2019-05-22T03:40:57.865Z,65.13
2019-05-22T03:43:30.818Z,69.70
2019-05-22T03:46:12.518Z,72.83
2019-05-22T03:48:44.855Z,73.67
2019-05-22T03:51:18.454Z,71.40
2019-05-22T03:53:50.002Z,66.03
2019-05-22T03:56:22.301Z,72.07
2019-05-22T03:58:55.490Z,63.00
2019-05-22T04:01:26.873Z,66.20
2019-05-22T04:03:59.622Z,71.17
2019-05-22T04:06:32.967Z,69.97
2019-05-22T04:09:20.501Z,68.97
2019-05-22T04:11:53.708Z,66.87
2019-05-22T04:14:35.568Z,70.67
2019-05-22T04:17:10.257Z,72.03
2019-05-22T04:19:50.005Z,66.07
2019-05-22T04:22:18.116Z,65.30
2019-05-22T04:24:49.964Z,60.63
2019-05-22T04:27:22.600Z,57.30
2019-05-22T04:29:54.051Z,57.47
2019-05-22T04:32:37.265Z,60.77
2019-05-22T04:35:12.161Z,52.90
2019-05-22T04:37:44.512Z,48.63
2019-05-22T04:40:55.689Z,53.83
2019-05-22T04:43:32.574Z,55.33
2019-05-22T04:46:08.357Z,53.37
2019-05-22T04:48:45.539Z,51.60
2019-05-22T04:51:29.970Z,46.73
2019-05-22T04:54:01.560Z,43.27
2019-05-22T04:56:32.901Z,47.63
2019-05-22T04:59:05.346Z,46.70
2019-05-22T05:01:37.698Z,48.40
2019-05-22T05:04:09.400Z,41.20
2019-05-22T05:06:40.870Z,52.20
2019-05-22T05:09:14.156Z,46.30
2019-05-22T05:11:45.916Z,49.37
2019-05-22T05:14:17.384Z,49.70
2019-05-22T05:16:49.135Z,44.77
2019-05-22T05:19:20.865Z,48.63
2019-05-22T05:21:52.342Z,48.03
2019-05-22T05:24:24.108Z,48.17
2019-05-22T05:26:55.640Z,49.33
2019-05-22T05:29:30.287Z,48.60
2019-05-22T05:32:02.769Z,47.27
2019-05-22T05:34:52.897Z,43.60
2019-05-22T05:37:25.082Z,49.87
2019-05-22T05:40:33.623Z,48.57
2019-05-22T05:43:07.106Z,45.63
2019-05-22T05:45:41.035Z,49.27
2019-05-22T05:48:17.105Z,55.50
2019-05-22T05:51:40.462Z,43.33
2019-05-22T05:54:15.968Z,43.83
2019-05-22T05:56:50.179Z,41.80
2019-05-22T05:59:24.288Z,43.30
2019-05-22T06:01:56.464Z,43.63
2019-05-22T06:04:39.499Z,45.83
2019-05-22T06:07:25.028Z,41.80
2019-05-22T06:11:09.052Z,43.93
2019-05-22T06:13:40.409Z,40.13
2019-05-22T06:17:25.859Z,41.87
2019-05-22T06:20:01.024Z,42.33
2019-05-22T06:22:32.522Z,42.97
2019-05-22T06:25:05.101Z,38.17
2019-05-22T06:27:49.958Z,42.80
2019-05-22T06:30:46.363Z,39.17
2019-05-22T06:33:45.944Z,40.27
2019-05-22T06:36:18.483Z,38.23
2019-05-22T06:39:17.225Z,38.73
2019-05-22T06:41:49.488Z,39.03
2019-05-22T06:44:35.066Z,41.20
2019-05-22T06:47:17.739Z,35.57
2019-05-22T06:49:55.373Z,33.57
2019-05-22T06:52:27.446Z,35.77
2019-05-22T06:54:59.168Z,32.70
2019-05-22T06:57:34.344Z,33.63
2019-05-22T07:00:15.379Z,31.43
2019-05-22T07:02:47.088Z,30.63
2019-05-22T07:05:18.711Z,29.13
2019-05-22T07:07:50.483Z,30.97
2019-05-22T07:10:22.533Z,33.23
2019-05-22T07:12:55.472Z,27.17
2019-05-22T07:15:54.034Z,32.80
2019-05-22T07:18:29.648Z,34.47
2019-05-22T07:21:01.313Z,30.13
2019-05-22T07:23:34.768Z,29.90
2019-05-22T07:26:06.666Z,33.97
2019-05-22T07:28:38.865Z,30.50
2019-05-22T07:31:10.751Z,31.27
2019-05-22T07:33:42.343Z,34.17
2019-05-22T07:36:17.032Z,30.70
2019-05-22T07:38:48.804Z,31.47
2019-05-22T07:41:20.624Z,35.17
2019-05-22T07:43:52.119Z,35.73
2019-05-22T07:46:24.196Z,31.17
2019-05-22T07:48:56.136Z,29.40
2019-05-22T07:51:28.618Z,35.57
2019-05-22T07:54:00.263Z,29.97
2019-05-22T07:56:32.371Z,33.03
2019-05-22T07:59:04.926Z,33.87
2019-05-22T08:01:36.683Z,30.77
2019-05-22T08:04:08.676Z,31.33
2019-05-22T08:06:40.626Z,27.03
2019-05-22T08:09:13.457Z,28.37
2019-05-22T08:11:45.253Z,28.37
2019-05-22T08:14:19.063Z,30.50
2019-05-22T08:16:50.794Z,27.83
2019-05-22T08:19:22.664Z,27.30
2019-05-22T08:22:06.644Z,26.93
2019-05-22T08:24:29.119Z,26.10
2019-05-22T08:27:01.790Z,25.27
2019-05-22T08:29:33.495Z,28.10
2019-05-22T08:32:06.545Z,27.43
2019-05-22T08:34:39.693Z,30.07
2019-05-22T08:37:17.577Z,27.23
2019-05-22T08:39:49.687Z,27.70
2019-05-22T08:42:23.285Z,26.57
2019-05-22T08:44:54.784Z,26.37
2019-05-22T08:47:26.667Z,24.73
2019-05-22T08:49:58.157Z,23.37
2019-05-22T08:52:31.399Z,21.23
2019-05-22T08:55:05.094Z,20.67
2019-05-22T08:57:37.023Z,21.13
2019-05-22T09:00:12.386Z,21.80
2019-05-22T09:02:42.583Z,19.33
2019-05-22T09:05:15.416Z,22.13
2019-05-22T09:07:47.245Z,19.13
2019-05-22T09:10:19.199Z,21.63
2019-05-22T09:12:50.626Z,24.27
2019-05-22T09:15:22.143Z,22.17
2019-05-22T09:17:53.541Z,21.67
2019-05-22T09:20:25.678Z,20.93
2019-05-22T09:22:57.645Z,22.60
2019-05-22T09:25:29.611Z,23.67
2019-05-22T09:28:01.824Z,24.83
2019-05-22T09:30:34.981Z,22.43
2019-05-22T09:33:08.274Z,27.43
2019-05-22T09:35:39.785Z,21.40
2019-05-22T09:38:11.879Z,21.53
2019-05-22T09:40:43.682Z,22.33
2019-05-22T09:43:17.491Z,20.93
2019-05-22T09:45:49.158Z,24.83
2019-05-22T09:48:21.221Z,26.27
2019-05-22T09:50:52.884Z,27.90
2019-05-22T09:53:24.700Z,24.37
2019-05-22T09:55:56.757Z,25.30
2019-05-22T09:58:28.847Z,28.33
2019-05-22T10:01:00.594Z,26.13
2019-05-22T10:03:32.215Z,25.77
2019-05-22T10:06:04.700Z,27.63
2019-05-22T10:08:36.318Z,27.30
2019-05-22T10:11:08.058Z,29.73
2019-05-22T10:13:39.974Z,27.33
2019-05-22T10:16:11.637Z,27.80
2019-05-22T10:18:43.227Z,27.50
2019-05-22T10:21:15.434Z,30.10
2019-05-22T10:23:47.040Z,27.40
2019-05-22T10:26:18.772Z,28.43
2019-05-22T10:28:51.257Z,25.60
2019-05-22T10:31:23.175Z,25.37
2019-05-22T10:33:54.736Z,30.20
2019-05-22T10:36:26.201Z,26.73
2019-05-22T10:38:57.932Z,26.97
2019-05-22T10:41:29.980Z,31.33
2019-05-22T10:44:02.209Z,27.73
2019-05-22T10:46:33.926Z,27.53
2019-05-22T10:49:05.592Z,32.63
2019-05-22T10:51:37.325Z,33.50
2019-05-22T10:54:08.890Z,27.17
2019-05-22T10:56:40.414Z,26.87
2019-05-22T10:59:12.212Z,25.20
2019-05-22T11:01:43.758Z,26.50
2019-05-22T11:04:19.375Z,28.13
2019-05-22T11:06:49.444Z,24.03
2019-05-22T11:09:22.301Z,27.43
2019-05-22T11:11:54.428Z,21.50
2019-05-22T11:14:26.721Z,25.03
2019-05-22T11:17:01.432Z,24.10
2019-05-22T11:19:35.767Z,22.40
2019-05-22T11:22:07.452Z,23.77
2019-05-22T11:24:39.086Z,25.33
2019-05-22T11:27:11.548Z,19.70
2019-05-22T11:29:44.528Z,18.90
2019-05-22T11:32:16.743Z,19.10
2019-05-22T11:34:48.819Z,18.40
2019-05-22T11:37:22.040Z,17.20
2019-05-22T11:39:54.132Z,14.13
2019-05-22T11:42:25.856Z,14.60
2019-05-22T11:44:57.479Z,13.53
2019-05-22T11:47:29.495Z,14.17
2019-05-22T11:50:01.590Z,17.87
2019-05-22T11:52:33.825Z,13.63
2019-05-22T11:55:05.921Z,12.57
2019-05-22T11:57:44.043Z,14.63
2019-05-22T12:00:24.830Z,15.57
2019-05-22T12:02:57.690Z,12.87
2019-05-22T12:05:29.292Z,14.87
2019-05-22T12:08:01.903Z,12.73
2019-05-22T12:10:34.098Z,13.87
2019-05-22T12:13:06.157Z,14.63
2019-05-22T12:15:39.430Z,14.73
2019-05-22T12:18:13.195Z,12.97
2019-05-22T12:20:45.325Z,12.33
2019-05-22T12:23:16.848Z,14.90
2019-05-22T12:25:48.573Z,13.73
2019-05-22T12:28:20.644Z,13.03
2019-05-22T12:30:55.502Z,12.57
2019-05-22T12:33:27.446Z,12.70
2019-05-22T12:35:59.428Z,10.20
2019-05-22T12:38:32.028Z,10.83
2019-05-22T12:41:04.530Z,9.80
2019-05-22T12:43:36.007Z,9.93
2019-05-22T12:46:08.411Z,9.53
2019-05-22T12:48:42.649Z,9.80
2019-05-22T12:51:14.775Z,8.97
2019-05-22T12:53:46.809Z,8.17
2019-05-22T12:56:19.166Z,9.50
2019-05-22T12:58:51.395Z,9.43
2019-05-22T13:01:25.034Z,10.23
2019-05-22T13:03:59.292Z,11.77
2019-05-22T13:06:31.296Z,10.77
2019-05-22T13:09:03.580Z,8.97
2019-05-22T13:11:36.178Z,11.90
2019-05-22T13:14:08.268Z,19.63
2019-05-22T13:16:47.216Z,11.83
2019-05-22T13:19:15.744Z,11.70
2019-05-22T13:21:48.021Z,9.23
2019-05-22T13:24:23.029Z,9.10
2019-05-22T13:26:56.366Z,12.10
2019-05-22T13:29:30.357Z,10.03
2019-05-22T13:32:02.999Z,11.33
2019-05-22T13:34:34.619Z,10.97
2019-05-22T13:37:06.502Z,9.70
2019-05-22T13:39:38.115Z,12.73
2019-05-22T13:42:13.426Z,10.50
2019-05-22T13:44:44.128Z,15.30
2019-05-22T13:47:16.442Z,11.07
2019-05-22T13:49:48.515Z,9.00
2019-05-22T13:52:20.044Z,11.33
2019-05-22T13:54:51.726Z,9.90
2019-05-22T13:57:24.238Z,10.50
2019-05-22T13:59:55.718Z,9.13
2019-05-22T14:02:27.679Z,8.13
2019-05-22T14:05:02.099Z,8.17
2019-05-22T14:07:33.878Z,8.30
2019-05-22T14:10:06.837Z,8.13
2019-05-22T14:12:38.944Z,7.47
2019-05-22T14:15:11.597Z,10.03
2019-05-22T14:17:43.013Z,8.40
2019-05-22T14:20:17.255Z,9.13
2019-05-22T14:22:48.754Z,11.10
2019-05-22T14:25:22.902Z,20.10
2019-05-22T14:27:54.324Z,59.30
2019-05-22T14:30:27.952Z,7.73
2019-05-22T14:33:04.126Z,11.43
2019-05-22T14:35:47.749Z,8.27
2019-05-22T14:38:11.661Z,7.40
2019-05-22T14:40:43.023Z,8.37
2019-05-22T14:43:14.795Z,8.60
2019-05-22T14:45:50.732Z,7.37
2019-05-22T14:48:29.513Z,8.57
2019-05-22T14:51:01.049Z,8.13
2019-05-22T14:53:33.580Z,11.63
2019-05-22T14:56:05.953Z,10.17
2019-05-22T14:58:39.293Z,7.93
2019-05-22T15:01:11.070Z,7.17
2019-05-22T15:03:42.708Z,10.57
2019-05-22T15:06:14.318Z,6.33
2019-05-22T15:08:46.085Z,9.40
2019-05-22T15:11:18.480Z,9.00
2019-05-22T15:13:50.062Z,6.17
2019-05-22T15:16:21.502Z,5.87
2019-05-22T15:18:53.139Z,6.17
2019-05-22T15:21:25.960Z,6.37
2019-05-22T15:23:58.097Z,7.20
2019-05-22T15:26:31.000Z,6.10
2019-05-22T15:29:02.405Z,5.43
2019-05-22T15:31:34.927Z,7.00
2019-05-22T15:34:07.911Z,5.93
2019-05-22T15:36:40.672Z,8.17
2019-05-22T15:39:15.501Z,5.83
2019-05-22T15:41:48.091Z,7.00
2019-05-22T15:44:20.004Z,6.97
2019-05-22T15:46:51.737Z,6.57
2019-05-22T15:49:24.117Z,8.27
2019-05-22T15:51:56.379Z,7.10
2019-05-22T15:54:29.754Z,6.33
2019-05-22T15:57:03.694Z,6.40
2019-05-22T15:59:38.843Z,6.63
2019-05-22T16:02:12.884Z,6.20
2019-05-22T16:04:45.037Z,6.20
2019-05-22T16:07:18.859Z,7.77
2019-05-22T16:09:51.299Z,6.87
2019-05-22T16:12:23.824Z,7.47
2019-05-22T16:14:55.193Z,8.97
2019-05-22T16:17:30.579Z,7.63
2019-05-22T16:20:04.295Z,8.43
2019-05-22T16:22:36.383Z,8.10
2019-05-22T16:25:09.431Z,7.53
2019-05-22T16:27:44.102Z,6.73
2019-05-22T16:30:16.448Z,7.53
2019-05-22T16:32:48.754Z,8.13
2019-05-22T16:35:20.514Z,8.00
2019-05-22T16:37:51.991Z,7.57
2019-05-22T16:40:27.369Z,7.60
2019-05-22T16:43:01.344Z,8.33
2019-05-22T16:45:36.010Z,8.17
2019-05-22T16:48:09.253Z,7.43
2019-05-22T16:50:42.069Z,9.90
2019-05-22T16:53:16.076Z,6.73
2019-05-22T16:55:47.726Z,6.27
2019-05-22T16:58:19.865Z,5.63
2019-05-22T17:00:51.823Z,6.33
2019-05-22T17:03:25.184Z,6.00
2019-05-22T17:05:57.114Z,6.83
2019-05-22T17:08:30.254Z,6.10
2019-05-22T17:11:05.277Z,5.60
2019-05-22T17:13:38.692Z,6.17
2019-05-22T17:16:10.509Z,5.83
2019-05-22T17:18:47.412Z,5.57
2019-05-22T17:21:15.812Z,5.47
2019-05-22T17:23:49.017Z,5.57
2019-05-22T17:26:20.728Z,6.70
2019-05-22T17:28:52.225Z,6.33
2019-05-22T17:31:24.974Z,7.23
2019-05-22T17:33:57.680Z,7.83
2019-05-22T17:36:31.839Z,6.10
2019-05-22T17:39:07.441Z,7.67
2019-05-22T17:41:42.522Z,7.07
2019-05-22T17:44:14.549Z,6.93
2019-05-22T17:46:47.230Z,6.67
2019-05-22T17:49:20.414Z,6.83
2019-05-22T17:51:53.210Z,6.70
2019-05-22T17:54:24.997Z,6.63
2019-05-22T17:56:56.916Z,7.13
2019-05-22T17:59:28.437Z,7.50
2019-05-22T18:02:00.619Z,6.50
2019-05-22T18:04:32.119Z,6.87
2019-05-22T18:07:03.611Z,8.37
2019-05-22T18:09:35.565Z,8.47
2019-05-22T18:12:09.338Z,10.67
2019-05-22T18:14:40.741Z,7.77
2019-05-22T18:17:12.534Z,10.30
2019-05-22T18:19:44.979Z,7.53
2019-05-22T18:22:17.028Z,8.60
2019-05-22T18:24:48.515Z,7.23
2019-05-22T18:27:20.066Z,8.83
2019-05-22T18:29:52.454Z,10.53
2019-05-22T18:32:24.006Z,10.13
2019-05-22T18:34:55.449Z,9.83
2019-05-22T18:37:27.022Z,12.63
2019-05-22T18:39:58.935Z,9.80
2019-05-22T18:42:30.436Z,11.33
2019-05-22T18:45:01.802Z,13.57
2019-05-22T18:47:33.476Z,12.00
2019-05-22T18:50:05.748Z,14.97
2019-05-22T18:52:41.217Z,10.60
2019-05-22T18:55:10.647Z,12.57
2019-05-22T18:57:42.416Z,12.80
2019-05-22T19:00:15.451Z,13.00
2019-05-22T19:02:47.186Z,11.10
2019-05-22T19:05:53.726Z,11.67
2019-05-22T19:08:25.172Z,13.40
2019-05-22T19:10:56.607Z,11.93
2019-05-22T19:13:28.259Z,11.30
2019-05-22T19:15:59.807Z,12.47
2019-05-22T19:18:31.457Z,13.57
2019-05-22T19:21:03.138Z,12.10
2019-05-22T19:23:34.720Z,14.53
2019-05-22T19:26:06.492Z,15.53
2019-05-22T19:28:44.044Z,14.33
2019-05-22T19:31:13.264Z,12.60
2019-05-22T19:33:44.734Z,12.73
2019-05-22T19:36:16.222Z,11.77
2019-05-22T19:38:48.028Z,14.53
2019-05-22T19:41:19.807Z,12.67
2019-05-22T19:43:51.738Z,12.33
2019-05-22T19:46:23.573Z,13.33
2019-05-22T19:48:55.698Z,13.80
2019-05-22T19:51:27.957Z,14.47
2019-05-22T19:54:02.872Z,12.70
2019-05-22T19:56:34.962Z,13.30
2019-05-22T19:59:08.642Z,13.57
2019-05-22T20:01:40.659Z,18.10
2019-05-22T20:04:13.180Z,14.29
2019-05-22T20:06:45.511Z,13.63
2019-05-22T20:09:17.157Z,13.47
2019-05-22T20:11:48.724Z,16.03
2019-05-22T20:14:20.966Z,15.90
2019-05-22T20:16:53.686Z,16.93
2019-05-22T20:19:25.124Z,15.50
2019-05-22T20:21:59.912Z,15.97
2019-05-22T20:24:29.928Z,15.10
2019-05-22T20:27:01.505Z,15.60
2019-05-22T20:29:34.023Z,16.53
2019-05-22T20:32:06.521Z,19.27
2019-05-22T20:34:38.062Z,16.47
2019-05-22T20:37:10.091Z,20.13
2019-05-22T20:39:41.833Z,16.57
2019-05-22T20:42:13.907Z,16.70
2019-05-22T20:44:45.396Z,15.03
2019-05-22T20:47:20.804Z,18.10
2019-05-22T20:49:52.657Z,16.00
2019-05-22T20:52:24.844Z,18.17
2019-05-22T20:54:57.806Z,14.37
2019-05-22T20:57:32.424Z,21.60
2019-05-22T21:00:06.715Z,14.80
2019-05-22T21:02:42.641Z,16.53
2019-05-22T21:05:15.867Z,14.60
2019-05-22T21:07:51.019Z,16.20
2019-05-22T21:10:24.466Z,19.57
2019-05-22T21:12:56.733Z,14.63
2019-05-22T21:15:29.580Z,18.10
2019-05-22T21:18:02.279Z,15.97
2019-05-22T21:20:34.881Z,17.03
2019-05-22T21:23:07.564Z,18.93
2019-05-22T21:25:38.951Z,17.17
2019-05-22T21:28:10.616Z,15.83
2019-05-22T21:30:43.494Z,17.73
2019-05-22T21:33:15.646Z,15.30
2019-05-22T21:35:47.542Z,15.87
2019-05-22T21:38:19.481Z,15.70
2019-05-22T21:40:51.408Z,16.47
2019-05-22T21:43:23.099Z,17.40
2019-05-22T21:45:54.589Z,15.33
2019-05-22T21:48:26.714Z,20.43
2019-05-22T21:50:59.604Z,18.13
2019-05-22T21:53:31.197Z,17.50
2019-05-22T21:56:05.911Z,18.27
2019-05-22T21:58:37.458Z,17.07
2019-05-22T22:01:17.795Z,14.67
2019-05-22T22:03:54.726Z,18.77
2019-05-22T22:06:27.034Z,17.53
2019-05-22T22:08:58.963Z,18.47
2019-05-22T22:11:31.448Z,17.13
2019-05-22T22:14:03.212Z,16.03
2019-05-22T22:16:34.868Z,16.17
2019-05-22T22:19:07.447Z,16.57
2019-05-22T22:21:39.614Z,18.13
2019-05-22T22:24:11.760Z,17.07
2019-05-22T22:26:43.602Z,13.40
2019-05-22T22:29:15.084Z,14.57
2019-05-22T22:31:49.093Z,16.07
2019-05-22T22:34:40.471Z,12.77
2019-05-22T22:37:13.618Z,14.27
2019-05-22T22:39:49.598Z,12.67
2019-05-22T22:42:26.519Z,15.53
2019-05-22T22:44:59.099Z,16.20
2019-05-22T22:47:41.614Z,16.23
2019-05-22T22:50:13.999Z,15.43
2019-05-22T22:52:46.888Z,15.53
2019-05-22T22:55:20.993Z,18.23
2019-05-22T22:57:53.002Z,16.60
2019-05-22T23:00:31.438Z,15.97
2019-05-22T23:03:04.298Z,15.47
2019-05-22T23:05:36.516Z,27.07
2019-05-22T23:08:11.328Z,18.30
2019-05-22T23:10:44.016Z,19.20
2019-05-22T23:13:16.128Z,19.77
2019-05-22T23:15:50.058Z,19.70
2019-05-22T23:19:33.588Z,18.03
2019-05-22T23:22:05.540Z,17.90
2019-05-22T23:24:39.663Z,14.93
2019-05-22T23:27:15.785Z,15.67
2019-05-22T23:29:48.263Z,16.37
2019-05-22T23:32:21.413Z,15.40
2019-05-22T23:34:53.055Z,16.30
2019-05-22T23:37:26.312Z,16.40
2019-05-22T23:39:59.274Z,15.37
2019-05-22T23:42:38.425Z,18.63
2019-05-22T23:45:16.799Z,16.60
2019-05-22T23:48:11.958Z,17.60
2019-05-22T23:50:44.522Z,15.10
2019-05-22T23:53:18.483Z,18.43
2019-05-22T23:55:50.296Z,19.33
2019-05-22T23:58:23.036Z,16.90
